sensor_id;sensor_type;location;lat;lon;timestamp;P1;durP1;ratioP1;P2;durP2;ratioP2
35777;SDS011;21899;42.662;23.316;2023-03-11T00:00:19;25.15;;;16.70;;
35777;SDS011;21899;42.662;23.316;2023-03-11T00:02:46;19.80;;;13.27;;
35777;SDS011;21899;42.662;23.316;2023-03-11T00:05:23;18.33;;;10.85;;
35777;SDS011;21899;42.662;23.316;2023-03-11T00:07:50;11.20;;;7.13;;
35777;SDS011;21899;42.662;23.316;2023-03-11T00:12:54;4.80;;;3.08;;
35777;SDS011;21899;42.662;23.316;2023-03-11T00:15:20;3.85;;;2.42;;
35777;SDS011;21899;42.662;23.316;2023-03-11T00:17:46;4.05;;;2.08;;
35777;SDS011;21899;42.662;23.316;2023-03-11T00:22:52;3.38;;;1.35;;
35777;SDS011;21899;42.662;23.316;2023-03-11T00:25:18;2.72;;;1.15;;
35777;SDS011;21899;42.662;23.316;2023-03-11T00:27:45;1.90;;;1.00;;
35777;SDS011;21899;42.662;23.316;2023-03-11T00:30:10;2.85;;;1.10;;
35777;SDS011;21899;42.662;23.316;2023-03-11T00:32:37;3.50;;;1.63;;
35777;SDS011;21899;42.662;23.316;2023-03-11T00:35:03;2.47;;;1.30;;
35777;SDS011;21899;42.662;23.316;2023-03-11T00:37:29;5.05;;;1.40;;
35777;SDS011;21899;42.662;23.316;2023-03-11T00:39:54;3.40;;;1.20;;
35777;SDS011;21899;42.662;23.316;2023-03-11T00:42:20;3.40;;;1.40;;
35777;SDS011;21899;42.662;23.316;2023-03-11T00:44:45;2.65;;;1.20;;
35777;SDS011;21899;42.662;23.316;2023-03-11T00:47:11;2.00;;;1.15;;
35777;SDS011;21899;42.662;23.316;2023-03-11T00:49:36;4.28;;;1.27;;
35777;SDS011;21899;42.662;23.316;2023-03-11T00:52:02;1.95;;;0.90;;
35777;SDS011;21899;42.662;23.316;2023-03-11T00:54:28;2.60;;;0.90;;
35777;SDS011;21899;42.662;23.316;2023-03-11T00:56:54;2.95;;;1.00;;
35777;SDS011;21899;42.662;23.316;2023-03-11T00:59:19;2.45;;;0.90;;
35777;SDS011;21899;42.662;23.316;2023-03-11T01:01:46;2.50;;;0.93;;
35777;SDS011;21899;42.662;23.316;2023-03-11T01:04:11;1.80;;;1.00;;
35777;SDS011;21899;42.662;23.316;2023-03-11T01:06:36;2.25;;;1.00;;
35777;SDS011;21899;42.662;23.316;2023-03-11T01:09:02;2.35;;;1.20;;
35777;SDS011;21899;42.662;23.316;2023-03-11T01:11:28;2.67;;;1.45;;
35777;SDS011;21899;42.662;23.316;2023-03-11T01:13:54;3.08;;;1.35;;
35777;SDS011;21899;42.662;23.316;2023-03-11T01:16:19;3.00;;;1.80;;
35777;SDS011;21899;42.662;23.316;2023-03-11T01:18:45;3.42;;;2.33;;
35777;SDS011;21899;42.662;23.316;2023-03-11T01:21:10;4.00;;;2.10;;
35777;SDS011;21899;42.662;23.316;2023-03-11T01:23:36;4.47;;;1.90;;
35777;SDS011;21899;42.662;23.316;2023-03-11T01:26:03;3.22;;;1.63;;
35777;SDS011;21899;42.662;23.316;2023-03-11T01:28:28;4.18;;;1.83;;
35777;SDS011;21899;42.662;23.316;2023-03-11T01:30:54;3.25;;;1.80;;
35777;SDS011;21899;42.662;23.316;2023-03-11T01:33:19;6.22;;;2.45;;
35777;SDS011;21899;42.662;23.316;2023-03-11T01:35:45;6.47;;;2.53;;
35777;SDS011;21899;42.662;23.316;2023-03-11T01:38:13;3.17;;;1.73;;
35777;SDS011;21899;42.662;23.316;2023-03-11T01:40:41;4.75;;;1.88;;
35777;SDS011;21899;42.662;23.316;2023-03-11T01:43:37;4.80;;;2.30;;
35777;SDS011;21899;42.662;23.316;2023-03-11T01:49:20;3.83;;;1.75;;
35777;SDS011;21899;42.662;23.316;2023-03-11T01:51:42;4.82;;;1.80;;
35777;SDS011;21899;42.662;23.316;2023-03-11T01:54:17;2.53;;;1.40;;
35777;SDS011;21899;42.662;23.316;2023-03-11T01:56:47;2.53;;;1.40;;
35777;SDS011;21899;42.662;23.316;2023-03-11T01:59:15;3.42;;;2.03;;
35777;SDS011;21899;42.662;23.316;2023-03-11T02:04:50;3.53;;;2.30;;
35777;SDS011;21899;42.662;23.316;2023-03-11T02:07:16;5.60;;;3.08;;
35777;SDS011;21899;42.662;23.316;2023-03-11T02:09:42;4.53;;;3.28;;
35777;SDS011;21899;42.662;23.316;2023-03-11T02:12:08;4.88;;;3.28;;
35777;SDS011;21899;42.662;23.316;2023-03-11T02:14:35;4.43;;;2.97;;
35777;SDS011;21899;42.662;23.316;2023-03-11T02:17:03;7.25;;;3.67;;
35777;SDS011;21899;42.662;23.316;2023-03-11T02:19:49;6.68;;;4.10;;
35777;SDS011;21899;42.662;23.316;2023-03-11T02:22:16;7.05;;;4.05;;
35777;SDS011;21899;42.662;23.316;2023-03-11T02:24:44;7.95;;;4.68;;
35777;SDS011;21899;42.662;23.316;2023-03-11T02:27:15;7.53;;;4.22;;
35777;SDS011;21899;42.662;23.316;2023-03-11T02:29:43;9.13;;;4.45;;
35777;SDS011;21899;42.662;23.316;2023-03-11T02:32:11;8.45;;;4.38;;
35777;SDS011;21899;42.662;23.316;2023-03-11T02:34:38;8.23;;;5.30;;
35777;SDS011;21899;42.662;23.316;2023-03-11T02:37:04;7.15;;;4.13;;
35777;SDS011;21899;42.662;23.316;2023-03-11T02:39:32;9.18;;;4.43;;
35777;SDS011;21899;42.662;23.316;2023-03-11T02:41:58;7.82;;;4.53;;
35777;SDS011;21899;42.662;23.316;2023-03-11T02:44:26;6.88;;;3.80;;
35777;SDS011;21899;42.662;23.316;2023-03-11T02:46:53;7.30;;;4.38;;
35777;SDS011;21899;42.662;23.316;2023-03-11T02:49:19;6.93;;;5.13;;
35777;SDS011;21899;42.662;23.316;2023-03-11T02:51:45;5.78;;;3.20;;
35777;SDS011;21899;42.662;23.316;2023-03-11T02:54:10;5.70;;;3.42;;
35777;SDS011;21899;42.662;23.316;2023-03-11T02:56:36;3.80;;;2.15;;
35777;SDS011;21899;42.662;23.316;2023-03-11T02:59:01;4.30;;;1.55;;
35777;SDS011;21899;42.662;23.316;2023-03-11T03:01:27;1.92;;;1.20;;
35777;SDS011;21899;42.662;23.316;2023-03-11T03:03:53;2.03;;;1.08;;
35777;SDS011;21899;42.662;23.316;2023-03-11T03:06:19;0.90;;;0.60;;
35777;SDS011;21899;42.662;23.316;2023-03-11T03:08:44;1.20;;;0.80;;
35777;SDS011;21899;42.662;23.316;2023-03-11T03:11:09;1.33;;;0.70;;
35777;SDS011;21899;42.662;23.316;2023-03-11T03:13:35;2.33;;;0.82;;
35777;SDS011;21899;42.662;23.316;2023-03-11T03:16:00;0.93;;;0.52;;
35777;SDS011;21899;42.662;23.316;2023-03-11T03:18:26;4.35;;;2.90;;
35777;SDS011;21899;42.662;23.316;2023-03-11T03:20:52;8.95;;;2.83;;
35777;SDS011;21899;42.662;23.316;2023-03-11T03:23:18;2.88;;;1.27;;
35777;SDS011;21899;42.662;23.316;2023-03-11T03:25:44;2.55;;;1.38;;
35777;SDS011;21899;42.662;23.316;2023-03-11T03:28:13;7.63;;;2.78;;
35777;SDS011;21899;42.662;23.316;2023-03-11T03:30:39;1.10;;;0.50;;
35777;SDS011;21899;42.662;23.316;2023-03-11T03:33:05;0.63;;;0.40;;
35777;SDS011;21899;42.662;23.316;2023-03-11T03:35:31;0.28;;;0.28;;
35777;SDS011;21899;42.662;23.316;2023-03-11T03:37:57;0.60;;;0.50;;
35777;SDS011;21899;42.662;23.316;2023-03-11T03:40:24;0.93;;;0.45;;
35777;SDS011;21899;42.662;23.316;2023-03-11T03:42:49;0.55;;;0.40;;
35777;SDS011;21899;42.662;23.316;2023-03-11T03:45:15;2.25;;;0.43;;
35777;SDS011;21899;42.662;23.316;2023-03-11T03:47:41;1.23;;;0.40;;
35777;SDS011;21899;42.662;23.316;2023-03-11T03:50:07;0.35;;;0.32;;
35777;SDS011;21899;42.662;23.316;2023-03-11T03:52:34;2.67;;;0.80;;
35777;SDS011;21899;42.662;23.316;2023-03-11T03:55:00;0.85;;;0.50;;
35777;SDS011;21899;42.662;23.316;2023-03-11T03:57:26;0.47;;;0.38;;
35777;SDS011;21899;42.662;23.316;2023-03-11T03:59:52;0.73;;;0.50;;
35777;SDS011;21899;42.662;23.316;2023-03-11T04:02:18;0.60;;;0.40;;
35777;SDS011;21899;42.662;23.316;2023-03-11T04:04:43;1.35;;;0.50;;
35777;SDS011;21899;42.662;23.316;2023-03-11T04:07:09;0.30;;;0.30;;
35777;SDS011;21899;42.662;23.316;2023-03-11T04:09:37;0.47;;;0.47;;
35777;SDS011;21899;42.662;23.316;2023-03-11T04:12:03;0.68;;;0.30;;
35777;SDS011;21899;42.662;23.316;2023-03-11T04:14:29;1.95;;;0.60;;
35777;SDS011;21899;42.662;23.316;2023-03-11T04:16:54;0.57;;;0.40;;
35777;SDS011;21899;42.662;23.316;2023-03-11T04:19:21;0.73;;;0.50;;
35777;SDS011;21899;42.662;23.316;2023-03-11T04:21:47;0.35;;;0.30;;
35777;SDS011;21899;42.662;23.316;2023-03-11T04:24:12;0.82;;;0.50;;
35777;SDS011;21899;42.662;23.316;2023-03-11T04:26:38;0.70;;;0.40;;
35777;SDS011;21899;42.662;23.316;2023-03-11T04:29:03;0.40;;;0.40;;
35777;SDS011;21899;42.662;23.316;2023-03-11T04:31:28;1.08;;;0.55;;
35777;SDS011;21899;42.662;23.316;2023-03-11T04:33:54;0.30;;;0.30;;
35777;SDS011;21899;42.662;23.316;2023-03-11T04:36:19;1.42;;;0.70;;
35777;SDS011;21899;42.662;23.316;2023-03-11T04:38:45;1.10;;;0.50;;
35777;SDS011;21899;42.662;23.316;2023-03-11T04:41:10;1.02;;;0.40;;
35777;SDS011;21899;42.662;23.316;2023-03-11T04:43:36;0.65;;;0.40;;
35777;SDS011;21899;42.662;23.316;2023-03-11T04:46:01;1.25;;;0.40;;
35777;SDS011;21899;42.662;23.316;2023-03-11T04:48:27;1.05;;;0.50;;
35777;SDS011;21899;42.662;23.316;2023-03-11T04:50:52;0.22;;;0.22;;
35777;SDS011;21899;42.662;23.316;2023-03-11T04:53:19;1.45;;;1.02;;
35777;SDS011;21899;42.662;23.316;2023-03-11T04:55:45;1.73;;;0.98;;
35777;SDS011;21899;42.662;23.316;2023-03-11T04:58:11;2.67;;;0.47;;
35777;SDS011;21899;42.662;23.316;2023-03-11T05:00:37;0.30;;;0.30;;
35777;SDS011;21899;42.662;23.316;2023-03-11T05:03:02;0.32;;;0.30;;
35777;SDS011;21899;42.662;23.316;2023-03-11T05:05:28;0.80;;;0.50;;
35777;SDS011;21899;42.662;23.316;2023-03-11T05:07:53;0.43;;;0.40;;
35777;SDS011;21899;42.662;23.316;2023-03-11T05:10:18;0.70;;;0.40;;
35777;SDS011;21899;42.662;23.316;2023-03-11T05:12:46;0.65;;;0.50;;
35777;SDS011;21899;42.662;23.316;2023-03-11T05:15:12;3.00;;;0.80;;
35777;SDS011;21899;42.662;23.316;2023-03-11T05:17:38;1.67;;;0.80;;
35777;SDS011;21899;42.662;23.316;2023-03-11T05:20:03;1.20;;;0.70;;
35777;SDS011;21899;42.662;23.316;2023-03-11T05:22:31;1.40;;;0.75;;
35777;SDS011;21899;42.662;23.316;2023-03-11T05:24:57;3.00;;;0.60;;
35777;SDS011;21899;42.662;23.316;2023-03-11T05:27:22;0.50;;;0.40;;
35777;SDS011;21899;42.662;23.316;2023-03-11T05:29:47;0.85;;;0.45;;
35777;SDS011;21899;42.662;23.316;2023-03-11T05:32:14;2.13;;;0.70;;
35777;SDS011;21899;42.662;23.316;2023-03-11T05:34:39;0.80;;;0.50;;
35777;SDS011;21899;42.662;23.316;2023-03-11T05:37:05;1.30;;;0.60;;
35777;SDS011;21899;42.662;23.316;2023-03-11T05:39:30;0.73;;;0.50;;
35777;SDS011;21899;42.662;23.316;2023-03-11T05:41:56;0.70;;;0.40;;
35777;SDS011;21899;42.662;23.316;2023-03-11T05:44:21;0.85;;;0.60;;
35777;SDS011;21899;42.662;23.316;2023-03-11T05:46:47;1.10;;;0.65;;
35777;SDS011;21899;42.662;23.316;2023-03-11T05:49:12;0.88;;;0.50;;
35777;SDS011;21899;42.662;23.316;2023-03-11T05:51:38;0.60;;;0.47;;
35777;SDS011;21899;42.662;23.316;2023-03-11T05:54:04;1.02;;;0.60;;
35777;SDS011;21899;42.662;23.316;2023-03-11T05:56:35;0.80;;;0.50;;
35777;SDS011;21899;42.662;23.316;2023-03-11T05:59:01;1.08;;;0.63;;
35777;SDS011;21899;42.662;23.316;2023-03-11T06:01:26;1.33;;;0.70;;
35777;SDS011;21899;42.662;23.316;2023-03-11T06:03:52;1.17;;;0.68;;
35777;SDS011;21899;42.662;23.316;2023-03-11T06:06:17;0.63;;;0.50;;
35777;SDS011;21899;42.662;23.316;2023-03-11T06:08:43;3.42;;;0.63;;
35777;SDS011;21899;42.662;23.316;2023-03-11T06:11:13;0.55;;;0.50;;
35777;SDS011;21899;42.662;23.316;2023-03-11T06:13:39;1.60;;;0.70;;
35777;SDS011;21899;42.662;23.316;2023-03-11T06:16:05;2.67;;;0.90;;
35777;SDS011;21899;42.662;23.316;2023-03-11T06:18:31;1.50;;;0.65;;
35777;SDS011;21899;42.662;23.316;2023-03-11T06:20:57;1.42;;;0.70;;
35777;SDS011;21899;42.662;23.316;2023-03-11T06:23:23;2.10;;;0.75;;
35777;SDS011;21899;42.662;23.316;2023-03-11T06:25:58;2.30;;;1.10;;
35777;SDS011;21899;42.662;23.316;2023-03-11T06:28:25;2.53;;;0.88;;
35777;SDS011;21899;42.662;23.316;2023-03-11T06:30:51;1.25;;;0.70;;
35777;SDS011;21899;42.662;23.316;2023-03-11T06:33:17;1.70;;;0.90;;
35777;SDS011;21899;42.662;23.316;2023-03-11T06:35:42;1.48;;;0.73;;
35777;SDS011;21899;42.662;23.316;2023-03-11T06:38:08;2.17;;;0.90;;
35777;SDS011;21899;42.662;23.316;2023-03-11T06:40:35;1.60;;;0.80;;
35777;SDS011;21899;42.662;23.316;2023-03-11T06:43:01;2.03;;;0.80;;
35777;SDS011;21899;42.662;23.316;2023-03-11T06:45:26;1.02;;;0.65;;
35777;SDS011;21899;42.662;23.316;2023-03-11T06:47:52;3.30;;;0.80;;
35777;SDS011;21899;42.662;23.316;2023-03-11T06:50:17;2.30;;;0.70;;
35777;SDS011;21899;42.662;23.316;2023-03-11T06:52:43;1.17;;;0.80;;
35777;SDS011;21899;42.662;23.316;2023-03-11T06:55:08;1.20;;;0.70;;
35777;SDS011;21899;42.662;23.316;2023-03-11T06:57:34;4.22;;;0.80;;
35777;SDS011;21899;42.662;23.316;2023-03-11T06:59:59;2.47;;;0.98;;
35777;SDS011;21899;42.662;23.316;2023-03-11T07:02:25;2.20;;;1.08;;
35777;SDS011;21899;42.662;23.316;2023-03-11T07:04:50;1.60;;;0.80;;
35777;SDS011;21899;42.662;23.316;2023-03-11T07:07:15;2.25;;;1.00;;
35777;SDS011;21899;42.662;23.316;2023-03-11T07:09:41;2.22;;;0.95;;
35777;SDS011;21899;42.662;23.316;2023-03-11T07:12:07;2.58;;;0.85;;
35777;SDS011;21899;42.662;23.316;2023-03-11T07:14:32;2.05;;;0.98;;
35777;SDS011;21899;42.662;23.316;2023-03-11T07:16:58;3.20;;;1.08;;
35777;SDS011;21899;42.662;23.316;2023-03-11T07:19:23;1.83;;;0.77;;
35777;SDS011;21899;42.662;23.316;2023-03-11T07:21:49;1.50;;;0.82;;
35777;SDS011;21899;42.662;23.316;2023-03-11T07:24:15;2.05;;;0.88;;
35777;SDS011;21899;42.662;23.316;2023-03-11T07:26:41;1.67;;;1.10;;
35777;SDS011;21899;42.662;23.316;2023-03-11T07:29:07;4.28;;;1.13;;
35777;SDS011;21899;42.662;23.316;2023-03-11T07:31:34;1.70;;;1.00;;
35777;SDS011;21899;42.662;23.316;2023-03-11T07:34:01;3.13;;;1.13;;
35777;SDS011;21899;42.662;23.316;2023-03-11T07:36:28;1.08;;;0.70;;
35777;SDS011;21899;42.662;23.316;2023-03-11T07:38:55;2.13;;;0.95;;
35777;SDS011;21899;42.662;23.316;2023-03-11T07:41:23;1.00;;;0.70;;
35777;SDS011;21899;42.662;23.316;2023-03-11T07:43:52;2.80;;;1.27;;
35777;SDS011;21899;42.662;23.316;2023-03-11T07:46:19;1.63;;;0.90;;
35777;SDS011;21899;42.662;23.316;2023-03-11T07:48:46;1.65;;;0.88;;
35777;SDS011;21899;42.662;23.316;2023-03-11T07:51:13;3.05;;;1.35;;
35777;SDS011;21899;42.662;23.316;2023-03-11T07:53:41;3.20;;;1.20;;
35777;SDS011;21899;42.662;23.316;2023-03-11T07:56:08;2.35;;;0.88;;
35777;SDS011;21899;42.662;23.316;2023-03-11T07:58:35;2.55;;;0.95;;
35777;SDS011;21899;42.662;23.316;2023-03-11T08:03:34;2.63;;;0.85;;
35777;SDS011;21899;42.662;23.316;2023-03-11T08:05:59;2.15;;;0.90;;
35777;SDS011;21899;42.662;23.316;2023-03-11T08:08:25;1.45;;;0.88;;
35777;SDS011;21899;42.662;23.316;2023-03-11T08:10:51;2.20;;;0.98;;
35777;SDS011;21899;42.662;23.316;2023-03-11T08:13:17;1.52;;;0.90;;
35777;SDS011;21899;42.662;23.316;2023-03-11T08:15:42;2.38;;;1.20;;
35777;SDS011;21899;42.662;23.316;2023-03-11T08:18:08;2.25;;;0.93;;
35777;SDS011;21899;42.662;23.316;2023-03-11T08:20:33;3.15;;;2.00;;
35777;SDS011;21899;42.662;23.316;2023-03-11T08:23:01;2.55;;;1.17;;
35777;SDS011;21899;42.662;23.316;2023-03-11T08:25:26;2.63;;;0.98;;
35777;SDS011;21899;42.662;23.316;2023-03-11T08:27:51;2.80;;;1.17;;
35777;SDS011;21899;42.662;23.316;2023-03-11T08:30:17;2.58;;;1.10;;
35777;SDS011;21899;42.662;23.316;2023-03-11T08:32:42;2.30;;;1.17;;
35777;SDS011;21899;42.662;23.316;2023-03-11T08:35:08;2.13;;;1.20;;
35777;SDS011;21899;42.662;23.316;2023-03-11T08:37:34;1.90;;;0.90;;
35777;SDS011;21899;42.662;23.316;2023-03-11T08:39:59;2.78;;;0.88;;
35777;SDS011;21899;42.662;23.316;2023-03-11T08:42:25;2.40;;;1.20;;
35777;SDS011;21899;42.662;23.316;2023-03-11T08:44:50;2.53;;;1.25;;
35777;SDS011;21899;42.662;23.316;2023-03-11T08:47:15;3.72;;;1.13;;
35777;SDS011;21899;42.662;23.316;2023-03-11T08:49:41;3.00;;;1.17;;
35777;SDS011;21899;42.662;23.316;2023-03-11T08:52:07;3.67;;;1.30;;
35777;SDS011;21899;42.662;23.316;2023-03-11T08:54:32;2.17;;;1.10;;
35777;SDS011;21899;42.662;23.316;2023-03-11T08:56:58;2.38;;;1.20;;
35777;SDS011;21899;42.662;23.316;2023-03-11T08:59:27;2.55;;;1.33;;
35777;SDS011;21899;42.662;23.316;2023-03-11T09:01:53;3.75;;;1.30;;
35777;SDS011;21899;42.662;23.316;2023-03-11T09:04:19;1.88;;;1.08;;
35777;SDS011;21899;42.662;23.316;2023-03-11T09:06:44;2.22;;;1.23;;
35777;SDS011;21899;42.662;23.316;2023-03-11T09:09:10;3.17;;;1.10;;
35777;SDS011;21899;42.662;23.316;2023-03-11T09:11:36;1.80;;;1.00;;
35777;SDS011;21899;42.662;23.316;2023-03-11T09:14:02;3.15;;;1.08;;
35777;SDS011;21899;42.662;23.316;2023-03-11T09:16:28;1.70;;;0.82;;
35777;SDS011;21899;42.662;23.316;2023-03-11T09:18:54;2.30;;;1.20;;
35777;SDS011;21899;42.662;23.316;2023-03-11T09:21:20;2.30;;;1.15;;
35777;SDS011;21899;42.662;23.316;2023-03-11T09:23:46;5.78;;;1.10;;
35777;SDS011;21899;42.662;23.316;2023-03-11T09:26:12;3.38;;;1.17;;
35777;SDS011;21899;42.662;23.316;2023-03-11T09:28:39;3.03;;;1.25;;
35777;SDS011;21899;42.662;23.316;2023-03-11T09:31:05;2.38;;;1.20;;
35777;SDS011;21899;42.662;23.316;2023-03-11T09:33:30;3.30;;;1.33;;
35777;SDS011;21899;42.662;23.316;2023-03-11T09:35:59;2.13;;;1.10;;
35777;SDS011;21899;42.662;23.316;2023-03-11T09:38:25;2.63;;;1.10;;
35777;SDS011;21899;42.662;23.316;2023-03-11T09:40:58;3.95;;;1.90;;
35777;SDS011;21899;42.662;23.316;2023-03-11T09:43:40;3.80;;;1.40;;
35777;SDS011;21899;42.662;23.316;2023-03-11T09:48:47;4.05;;;1.10;;
35777;SDS011;21899;42.662;23.316;2023-03-11T09:51:30;2.67;;;1.50;;
35777;SDS011;21899;42.662;23.316;2023-03-11T09:54:03;4.40;;;1.40;;
35777;SDS011;21899;42.662;23.316;2023-03-11T09:56:33;3.97;;;1.27;;
35777;SDS011;21899;42.662;23.316;2023-03-11T09:59:01;3.80;;;1.42;;
35777;SDS011;21899;42.662;23.316;2023-03-11T10:04:02;3.70;;;1.23;;
35777;SDS011;21899;42.662;23.316;2023-03-11T10:06:32;2.75;;;1.20;;
35777;SDS011;21899;42.662;23.316;2023-03-11T10:15:02;5.43;;;1.40;;
35777;SDS011;21899;42.662;23.316;2023-03-11T10:17:45;4.45;;;1.70;;
35777;SDS011;21899;42.662;23.316;2023-03-11T10:20:26;3.58;;;1.30;;
35777;SDS011;21899;42.662;23.316;2023-03-11T10:28:13;2.65;;;1.10;;
35777;SDS011;21899;42.662;23.316;2023-03-11T10:30:46;4.93;;;1.38;;
35777;SDS011;21899;42.662;23.316;2023-03-11T10:33:21;3.63;;;1.40;;
35777;SDS011;21899;42.662;23.316;2023-03-11T10:35:53;3.33;;;1.17;;
35777;SDS011;21899;42.662;23.316;2023-03-11T10:40:54;3.67;;;1.27;;
35777;SDS011;21899;42.662;23.316;2023-03-11T10:43:26;2.47;;;1.00;;
35777;SDS011;21899;42.662;23.316;2023-03-11T10:45:55;3.17;;;1.17;;
35777;SDS011;21899;42.662;23.316;2023-03-11T10:48:23;2.80;;;1.25;;
35777;SDS011;21899;42.662;23.316;2023-03-11T10:53:19;1.67;;;0.90;;
35777;SDS011;21899;42.662;23.316;2023-03-11T10:56:03;1.95;;;1.00;;
35777;SDS011;21899;42.662;23.316;2023-03-11T10:58:29;2.05;;;1.30;;
35777;SDS011;21899;42.662;23.316;2023-03-11T11:01:03;3.38;;;1.10;;
35777;SDS011;21899;42.662;23.316;2023-03-11T11:03:34;4.88;;;1.13;;
35777;SDS011;21899;42.662;23.316;2023-03-11T11:06:04;2.50;;;1.05;;
35777;SDS011;21899;42.662;23.316;2023-03-11T11:08:31;4.47;;;1.45;;
35777;SDS011;21899;42.662;23.316;2023-03-11T11:10:58;3.05;;;1.10;;
35777;SDS011;21899;42.662;23.316;2023-03-11T11:13:26;3.75;;;1.20;;
35777;SDS011;21899;42.662;23.316;2023-03-11T11:16:17;2.08;;;1.20;;
35777;SDS011;21899;42.662;23.316;2023-03-11T11:18:48;5.10;;;1.10;;
35777;SDS011;21899;42.662;23.316;2023-03-11T11:24:26;2.80;;;1.20;;
35777;SDS011;21899;42.662;23.316;2023-03-11T11:29:43;2.42;;;1.10;;
35777;SDS011;21899;42.662;23.316;2023-03-11T11:35:04;4.95;;;1.63;;
35777;SDS011;21899;42.662;23.316;2023-03-11T11:37:30;7.65;;;1.67;;
35777;SDS011;21899;42.662;23.316;2023-03-11T11:42:55;3.97;;;1.30;;
35777;SDS011;21899;42.662;23.316;2023-03-11T11:48:15;4.18;;;1.50;;
35777;SDS011;21899;42.662;23.316;2023-03-11T11:50:47;2.63;;;1.20;;
35777;SDS011;21899;42.662;23.316;2023-03-11T11:53:27;3.83;;;1.42;;
35777;SDS011;21899;42.662;23.316;2023-03-11T11:55:58;4.07;;;1.48;;
35777;SDS011;21899;42.662;23.316;2023-03-11T11:58:25;3.90;;;1.30;;
35777;SDS011;21899;42.662;23.316;2023-03-11T12:11:35;5.47;;;1.42;;
35777;SDS011;21899;42.662;23.316;2023-03-11T12:14:03;3.55;;;1.55;;
35777;SDS011;21899;42.662;23.316;2023-03-11T12:16:49;5.43;;;1.30;;
35777;SDS011;21899;42.662;23.316;2023-03-11T12:30:47;5.80;;;1.30;;
35777;SDS011;21899;42.662;23.316;2023-03-11T12:33:29;8.38;;;1.30;;
35777;SDS011;21899;42.662;23.316;2023-03-11T12:36:00;4.80;;;1.33;;
35777;SDS011;21899;42.662;23.316;2023-03-11T12:38:31;4.95;;;1.55;;
35777;SDS011;21899;42.662;23.316;2023-03-11T12:41:03;2.70;;;1.40;;
35777;SDS011;21899;42.662;23.316;2023-03-11T12:46:00;3.88;;;0.93;;
35777;SDS011;21899;42.662;23.316;2023-03-11T12:48:33;2.45;;;1.23;;
35777;SDS011;21899;42.662;23.316;2023-03-11T12:51:05;3.60;;;1.27;;
35777;SDS011;21899;42.662;23.316;2023-03-11T12:53:41;2.42;;;1.00;;
35777;SDS011;21899;42.662;23.316;2023-03-11T13:04:30;4.95;;;1.20;;
35777;SDS011;21899;42.662;23.316;2023-03-11T13:09:43;4.65;;;0.90;;
35777;SDS011;21899;42.662;23.316;2023-03-11T13:33:48;2.95;;;1.30;;
35777;SDS011;21899;42.662;23.316;2023-03-11T13:36:37;2.20;;;1.10;;
35777;SDS011;21899;42.662;23.316;2023-03-11T13:39:28;3.40;;;1.50;;
35777;SDS011;21899;42.662;23.316;2023-03-11T13:42:01;2.03;;;1.05;;
35777;SDS011;21899;42.662;23.316;2023-03-11T13:44:33;5.00;;;0.90;;
35777;SDS011;21899;42.662;23.316;2023-03-11T13:47:14;2.90;;;1.42;;
35777;SDS011;21899;42.662;23.316;2023-03-11T13:52:16;3.30;;;1.20;;
35777;SDS011;21899;42.662;23.316;2023-03-11T13:54:51;2.72;;;1.10;;
35777;SDS011;21899;42.662;23.316;2023-03-11T13:57:26;2.22;;;1.10;;
35777;SDS011;21899;42.662;23.316;2023-03-11T13:59:54;2.85;;;1.20;;
35777;SDS011;21899;42.662;23.316;2023-03-11T14:02:26;5.72;;;1.40;;
35777;SDS011;21899;42.662;23.316;2023-03-11T14:04:53;4.20;;;1.20;;
35777;SDS011;21899;42.662;23.316;2023-03-11T14:07:29;3.05;;;1.50;;
35777;SDS011;21899;42.662;23.316;2023-03-11T14:12:35;5.60;;;2.42;;
35777;SDS011;21899;42.662;23.316;2023-03-11T14:15:01;7.65;;;2.00;;
35777;SDS011;21899;42.662;23.316;2023-03-11T14:17:31;5.40;;;2.10;;
35777;SDS011;21899;42.662;23.316;2023-03-11T14:20:10;3.60;;;1.88;;
35777;SDS011;21899;42.662;23.316;2023-03-11T14:22:39;6.03;;;2.00;;
35777;SDS011;21899;42.662;23.316;2023-03-11T14:25:09;12.57;;;2.38;;
35777;SDS011;21899;42.662;23.316;2023-03-11T14:27:44;12.23;;;1.90;;
35777;SDS011;21899;42.662;23.316;2023-03-11T14:30:18;4.07;;;1.30;;
35777;SDS011;21899;42.662;23.316;2023-03-11T14:32:54;2.60;;;1.23;;
35777;SDS011;21899;42.662;23.316;2023-03-11T14:35:57;3.38;;;1.15;;
35777;SDS011;21899;42.662;23.316;2023-03-11T14:38:28;3.40;;;1.48;;
35777;SDS011;21899;42.662;23.316;2023-03-11T14:40:57;2.08;;;1.35;;
35777;SDS011;21899;42.662;23.316;2023-03-11T14:43:31;3.03;;;1.73;;
35777;SDS011;21899;42.662;23.316;2023-03-11T14:45:59;5.85;;;1.65;;
35777;SDS011;21899;42.662;23.316;2023-03-11T14:48:44;4.63;;;1.70;;
35777;SDS011;21899;42.662;23.316;2023-03-11T14:51:15;3.40;;;1.70;;
35777;SDS011;21899;42.662;23.316;2023-03-11T14:56:28;3.65;;;1.63;;
35777;SDS011;21899;42.662;23.316;2023-03-11T14:59:01;4.13;;;2.05;;
35777;SDS011;21899;42.662;23.316;2023-03-11T15:01:40;3.67;;;2.08;;
35777;SDS011;21899;42.662;23.316;2023-03-11T15:04:40;3.47;;;1.60;;
35777;SDS011;21899;42.662;23.316;2023-03-11T15:07:02;7.65;;;1.80;;
35777;SDS011;21899;42.662;23.316;2023-03-11T15:09:28;4.05;;;1.80;;
35777;SDS011;21899;42.662;23.316;2023-03-11T15:11:59;5.70;;;2.03;;
35777;SDS011;21899;42.662;23.316;2023-03-11T15:17:07;4.75;;;1.50;;
35777;SDS011;21899;42.662;23.316;2023-03-11T15:19:45;3.55;;;1.50;;
35777;SDS011;21899;42.662;23.316;2023-03-11T15:24:55;3.90;;;1.55;;
35777;SDS011;21899;42.662;23.316;2023-03-11T15:27:27;3.15;;;1.65;;
35777;SDS011;21899;42.662;23.316;2023-03-11T15:29:56;3.65;;;1.90;;
35777;SDS011;21899;42.662;23.316;2023-03-11T15:32:44;4.13;;;2.28;;
35777;SDS011;21899;42.662;23.316;2023-03-11T15:37:35;3.33;;;2.00;;
35777;SDS011;21899;42.662;23.316;2023-03-11T15:42:45;6.80;;;2.90;;
35777;SDS011;21899;42.662;23.316;2023-03-11T15:45:18;8.93;;;2.85;;
35777;SDS011;21899;42.662;23.316;2023-03-11T15:47:45;5.18;;;2.17;;
35777;SDS011;21899;42.662;23.316;2023-03-11T15:52:41;9.35;;;3.38;;
35777;SDS011;21899;42.662;23.316;2023-03-11T15:55:07;8.00;;;4.43;;
35777;SDS011;21899;42.662;23.316;2023-03-11T15:57:34;7.25;;;4.10;;
35777;SDS011;21899;42.662;23.316;2023-03-11T15:59:59;6.90;;;4.90;;
35777;SDS011;21899;42.662;23.316;2023-03-11T16:02:27;7.50;;;5.30;;
35777;SDS011;21899;42.662;23.316;2023-03-11T16:04:54;7.13;;;5.50;;
35777;SDS011;21899;42.662;23.316;2023-03-11T16:07:21;7.90;;;5.40;;
35777;SDS011;21899;42.662;23.316;2023-03-11T16:09:46;7.43;;;5.85;;
35777;SDS011;21899;42.662;23.316;2023-03-11T16:12:15;8.15;;;6.07;;
35777;SDS011;21899;42.662;23.316;2023-03-11T16:14:44;9.48;;;6.47;;
35777;SDS011;21899;42.662;23.316;2023-03-11T16:17:10;8.95;;;5.97;;
35777;SDS011;21899;42.662;23.316;2023-03-11T16:19:39;10.05;;;7.03;;
35777;SDS011;21899;42.662;23.316;2023-03-11T16:22:05;8.57;;;6.53;;
35777;SDS011;21899;42.662;23.316;2023-03-11T16:24:31;6.22;;;3.90;;
35777;SDS011;21899;42.662;23.316;2023-03-11T16:26:56;5.78;;;3.97;;
35777;SDS011;21899;42.662;23.316;2023-03-11T16:29:22;8.73;;;4.32;;
35777;SDS011;21899;42.662;23.316;2023-03-11T16:31:48;7.90;;;4.88;;
35777;SDS011;21899;42.662;23.316;2023-03-11T16:34:13;8.82;;;5.25;;
35777;SDS011;21899;42.662;23.316;2023-03-11T16:36:39;7.28;;;4.65;;
35777;SDS011;21899;42.662;23.316;2023-03-11T16:39:04;8.30;;;4.60;;
35777;SDS011;21899;42.662;23.316;2023-03-11T16:41:40;8.45;;;4.50;;
35777;SDS011;21899;42.662;23.316;2023-03-11T16:44:07;6.70;;;3.20;;
35777;SDS011;21899;42.662;23.316;2023-03-11T16:46:33;5.63;;;3.75;;